Terminal Aerodrome Forecast
Issued by NWS

Home | Current Version | Previous Version | Text Only | Print | Product List | Glossary On
Versions: 1 2 3 4 5 6 7 8 9 10 11 12 13 14 15 16 17 18 19 20 21 22 23 24 25 26
000
FTUS45 KGJT 310520
TAFTEX
TAF
KTEX 310520Z 3106/0106 12005KT P6SM FEW150
     FM311800 26018G30KT P6SM FEW110 SCT150
     FM010200 25010KT P6SM FEW110=

USA.gov is the U.S. government's official web portal to all federal, state and local government web resources and services.